sensor_id;sensor_type;location;lat;lon;timestamp;P1;durP1;ratioP1;P2;durP2;ratioP2
6763;SDS011;47432;48.760;9.178;2023-09-18T00:01:13;7.40;;;3.73;;
6763;SDS011;47432;48.760;9.178;2023-09-18T00:03:44;7.90;;;3.33;;
6763;SDS011;47432;48.760;9.178;2023-09-18T00:06:10;7.10;;;3.20;;
6763;SDS011;47432;48.760;9.178;2023-09-18T00:08:36;8.03;;;3.37;;
6763;SDS011;47432;48.760;9.178;2023-09-18T00:11:04;7.80;;;3.40;;
6763;SDS011;47432;48.760;9.178;2023-09-18T00:13:30;7.50;;;3.47;;
6763;SDS011;47432;48.760;9.178;2023-09-18T00:15:55;7.33;;;3.13;;
6763;SDS011;47432;48.760;9.178;2023-09-18T00:18:24;7.37;;;3.20;;
6763;SDS011;47432;48.760;9.178;2023-09-18T00:20:50;8.20;;;3.33;;
6763;SDS011;47432;48.760;9.178;2023-09-18T00:23:17;7.53;;;3.37;;
6763;SDS011;47432;48.760;9.178;2023-09-18T00:25:42;7.27;;;3.20;;
6763;SDS011;47432;48.760;9.178;2023-09-18T00:28:08;8.40;;;4.23;;
6763;SDS011;47432;48.760;9.178;2023-09-18T00:30:38;7.00;;;3.03;;
6763;SDS011;47432;48.760;9.178;2023-09-18T00:33:12;9.00;;;3.37;;
6763;SDS011;47432;48.760;9.178;2023-09-18T00:35:38;8.20;;;3.73;;
6763;SDS011;47432;48.760;9.178;2023-09-18T00:38:04;8.90;;;3.70;;
6763;SDS011;47432;48.760;9.178;2023-09-18T00:40:32;8.27;;;3.30;;
6763;SDS011;47432;48.760;9.178;2023-09-18T00:43:00;8.17;;;3.50;;
6763;SDS011;47432;48.760;9.178;2023-09-18T00:45:28;7.47;;;3.07;;
6763;SDS011;47432;48.760;9.178;2023-09-18T00:47:54;8.63;;;3.30;;
6763;SDS011;47432;48.760;9.178;2023-09-18T00:50:20;8.03;;;3.40;;
6763;SDS011;47432;48.760;9.178;2023-09-18T00:52:46;8.33;;;3.10;;
6763;SDS011;47432;48.760;9.178;2023-09-18T00:55:13;7.43;;;3.70;;
6763;SDS011;47432;48.760;9.178;2023-09-18T00:57:40;7.70;;;3.50;;
6763;SDS011;47432;48.760;9.178;2023-09-18T01:00:09;7.87;;;3.47;;
6763;SDS011;47432;48.760;9.178;2023-09-18T01:02:35;8.27;;;3.53;;
6763;SDS011;47432;48.760;9.178;2023-09-18T01:05:01;7.10;;;3.10;;
6763;SDS011;47432;48.760;9.178;2023-09-18T01:07:27;7.77;;;3.33;;
6763;SDS011;47432;48.760;9.178;2023-09-18T01:09:53;8.37;;;3.27;;
6763;SDS011;47432;48.760;9.178;2023-09-18T01:15:17;9.67;;;3.80;;
6763;SDS011;47432;48.760;9.178;2023-09-18T01:17:52;7.77;;;3.47;;
6763;SDS011;47432;48.760;9.178;2023-09-18T01:20:18;9.67;;;3.47;;
6763;SDS011;47432;48.760;9.178;2023-09-18T01:22:44;6.97;;;3.03;;
6763;SDS011;47432;48.760;9.178;2023-09-18T01:25:09;9.67;;;3.37;;
6763;SDS011;47432;48.760;9.178;2023-09-18T01:27:35;7.00;;;3.00;;
6763;SDS011;47432;48.760;9.178;2023-09-18T01:30:01;8.13;;;3.17;;
6763;SDS011;47432;48.760;9.178;2023-09-18T01:32:29;7.60;;;3.03;;
6763;SDS011;47432;48.760;9.178;2023-09-18T01:34:57;8.20;;;2.73;;
6763;SDS011;47432;48.760;9.178;2023-09-18T01:37:26;7.80;;;3.23;;
6763;SDS011;47432;48.760;9.178;2023-09-18T01:39:55;8.20;;;3.37;;
6763;SDS011;47432;48.760;9.178;2023-09-18T01:42:24;7.20;;;3.03;;
6763;SDS011;47432;48.760;9.178;2023-09-18T01:44:52;7.80;;;2.83;;
6763;SDS011;47432;48.760;9.178;2023-09-18T01:47:19;6.90;;;3.00;;
6763;SDS011;47432;48.760;9.178;2023-09-18T01:49:48;6.77;;;3.13;;
6763;SDS011;47432;48.760;9.178;2023-09-18T01:52:14;11.70;;;3.67;;
6763;SDS011;47432;48.760;9.178;2023-09-18T01:54:40;9.57;;;3.10;;
6763;SDS011;47432;48.760;9.178;2023-09-18T01:57:06;8.20;;;3.20;;
6763;SDS011;47432;48.760;9.178;2023-09-18T01:59:32;9.13;;;3.23;;
6763;SDS011;47432;48.760;9.178;2023-09-18T02:01:59;7.60;;;2.80;;
6763;SDS011;47432;48.760;9.178;2023-09-18T02:04:29;8.93;;;2.80;;
6763;SDS011;47432;48.760;9.178;2023-09-18T02:06:55;10.90;;;3.67;;
6763;SDS011;47432;48.760;9.178;2023-09-18T02:09:22;10.47;;;2.87;;
6763;SDS011;47432;48.760;9.178;2023-09-18T02:11:47;11.93;;;3.23;;
6763;SDS011;47432;48.760;9.178;2023-09-18T02:14:13;11.37;;;3.27;;
6763;SDS011;47432;48.760;9.178;2023-09-18T02:16:42;12.80;;;3.37;;
6763;SDS011;47432;48.760;9.178;2023-09-18T02:19:09;10.10;;;3.30;;
6763;SDS011;47432;48.760;9.178;2023-09-18T02:21:36;8.90;;;2.97;;
6763;SDS011;47432;48.760;9.178;2023-09-18T02:24:05;12.90;;;3.33;;
6763;SDS011;47432;48.760;9.178;2023-09-18T02:26:31;9.87;;;3.07;;
6763;SDS011;47432;48.760;9.178;2023-09-18T02:28:58;9.67;;;2.60;;
6763;SDS011;47432;48.760;9.178;2023-09-18T02:31:27;9.97;;;2.77;;
6763;SDS011;47432;48.760;9.178;2023-09-18T02:33:53;12.03;;;3.67;;
6763;SDS011;47432;48.760;9.178;2023-09-18T02:36:18;8.60;;;2.37;;
6763;SDS011;47432;48.760;9.178;2023-09-18T02:38:44;12.13;;;3.23;;
6763;SDS011;47432;48.760;9.178;2023-09-18T02:41:10;10.30;;;2.63;;
6763;SDS011;47432;48.760;9.178;2023-09-18T02:43:36;10.60;;;3.13;;
6763;SDS011;47432;48.760;9.178;2023-09-18T02:46:05;11.40;;;3.53;;
6763;SDS011;47432;48.760;9.178;2023-09-18T02:48:33;12.23;;;2.53;;
6763;SDS011;47432;48.760;9.178;2023-09-18T02:50:59;13.50;;;3.80;;
6763;SDS011;47432;48.760;9.178;2023-09-18T02:53:27;13.83;;;2.60;;
6763;SDS011;47432;48.760;9.178;2023-09-18T02:55:54;14.53;;;3.60;;
6763;SDS011;47432;48.760;9.178;2023-09-18T02:58:22;12.43;;;3.43;;
6763;SDS011;47432;48.760;9.178;2023-09-18T03:00:50;17.73;;;3.23;;
6763;SDS011;47432;48.760;9.178;2023-09-18T03:03:18;12.17;;;2.60;;
6763;SDS011;47432;48.760;9.178;2023-09-18T03:05:44;9.80;;;2.60;;
6763;SDS011;47432;48.760;9.178;2023-09-18T03:08:10;9.63;;;2.70;;
6763;SDS011;47432;48.760;9.178;2023-09-18T03:10:39;13.90;;;3.60;;
6763;SDS011;47432;48.760;9.178;2023-09-18T03:13:06;9.20;;;3.10;;
6763;SDS011;47432;48.760;9.178;2023-09-18T03:15:34;13.10;;;3.17;;
6763;SDS011;47432;48.760;9.178;2023-09-18T03:18:00;14.70;;;3.50;;
6763;SDS011;47432;48.760;9.178;2023-09-18T03:20:28;10.13;;;2.70;;
6763;SDS011;47432;48.760;9.178;2023-09-18T03:22:54;10.30;;;2.27;;
6763;SDS011;47432;48.760;9.178;2023-09-18T03:25:23;8.10;;;2.30;;
6763;SDS011;47432;48.760;9.178;2023-09-18T03:27:51;8.17;;;2.23;;
6763;SDS011;47432;48.760;9.178;2023-09-18T03:30:19;12.83;;;2.80;;
6763;SDS011;47432;48.760;9.178;2023-09-18T03:32:46;11.40;;;3.00;;
6763;SDS011;47432;48.760;9.178;2023-09-18T03:35:13;10.93;;;2.90;;
6763;SDS011;47432;48.760;9.178;2023-09-18T03:37:46;11.57;;;2.73;;
6763;SDS011;47432;48.760;9.178;2023-09-18T03:40:14;9.77;;;2.30;;
6763;SDS011;47432;48.760;9.178;2023-09-18T03:42:43;11.07;;;2.80;;
6763;SDS011;47432;48.760;9.178;2023-09-18T03:45:15;12.47;;;2.77;;
6763;SDS011;47432;48.760;9.178;2023-09-18T03:47:43;9.03;;;2.40;;
6763;SDS011;47432;48.760;9.178;2023-09-18T03:50:09;10.43;;;3.10;;
6763;SDS011;47432;48.760;9.178;2023-09-18T03:52:38;10.30;;;2.43;;
6763;SDS011;47432;48.760;9.178;2023-09-18T03:55:05;9.43;;;2.93;;
6763;SDS011;47432;48.760;9.178;2023-09-18T03:57:31;9.43;;;2.93;;
6763;SDS011;47432;48.760;9.178;2023-09-18T03:59:57;10.30;;;2.90;;
6763;SDS011;47432;48.760;9.178;2023-09-18T04:02:23;11.33;;;2.90;;
6763;SDS011;47432;48.760;9.178;2023-09-18T04:04:51;10.73;;;2.60;;
6763;SDS011;47432;48.760;9.178;2023-09-18T04:07:18;10.30;;;2.43;;
6763;SDS011;47432;48.760;9.178;2023-09-18T04:09:46;10.00;;;2.47;;
6763;SDS011;47432;48.760;9.178;2023-09-18T04:12:12;8.60;;;2.53;;
6763;SDS011;47432;48.760;9.178;2023-09-18T04:14:38;11.00;;;2.53;;
6763;SDS011;47432;48.760;9.178;2023-09-18T04:17:04;10.70;;;2.80;;
6763;SDS011;47432;48.760;9.178;2023-09-18T04:19:30;9.10;;;2.53;;
6763;SDS011;47432;48.760;9.178;2023-09-18T04:21:55;8.97;;;2.40;;
6763;SDS011;47432;48.760;9.178;2023-09-18T04:24:21;10.40;;;2.80;;
6763;SDS011;47432;48.760;9.178;2023-09-18T04:26:48;9.90;;;3.40;;
6763;SDS011;47432;48.760;9.178;2023-09-18T04:29:15;9.27;;;2.40;;
6763;SDS011;47432;48.760;9.178;2023-09-18T04:31:42;9.77;;;2.70;;
6763;SDS011;47432;48.760;9.178;2023-09-18T04:34:08;11.03;;;3.20;;
6763;SDS011;47432;48.760;9.178;2023-09-18T04:36:34;7.70;;;2.30;;
6763;SDS011;47432;48.760;9.178;2023-09-18T04:39:01;8.77;;;2.30;;
6763;SDS011;47432;48.760;9.178;2023-09-18T04:41:29;13.87;;;3.40;;
6763;SDS011;47432;48.760;9.178;2023-09-18T04:43:55;9.53;;;2.60;;
6763;SDS011;47432;48.760;9.178;2023-09-18T04:46:23;9.10;;;2.77;;
6763;SDS011;47432;48.760;9.178;2023-09-18T04:48:49;11.30;;;2.60;;
6763;SDS011;47432;48.760;9.178;2023-09-18T04:51:16;8.43;;;2.90;;
6763;SDS011;47432;48.760;9.178;2023-09-18T04:53:41;10.67;;;3.40;;
6763;SDS011;47432;48.760;9.178;2023-09-18T04:56:07;10.20;;;3.40;;
6763;SDS011;47432;48.760;9.178;2023-09-18T04:58:35;11.37;;;3.23;;
6763;SDS011;47432;48.760;9.178;2023-09-18T05:01:04;11.53;;;2.93;;
6763;SDS011;47432;48.760;9.178;2023-09-18T05:03:33;10.57;;;2.80;;
6763;SDS011;47432;48.760;9.178;2023-09-18T05:05:59;9.67;;;2.83;;
6763;SDS011;47432;48.760;9.178;2023-09-18T05:08:25;10.13;;;3.40;;
6763;SDS011;47432;48.760;9.178;2023-09-18T05:10:51;8.60;;;2.43;;
6763;SDS011;47432;48.760;9.178;2023-09-18T05:13:18;12.80;;;3.60;;
6763;SDS011;47432;48.760;9.178;2023-09-18T05:15:43;12.30;;;2.60;;
6763;SDS011;47432;48.760;9.178;2023-09-18T05:18:09;9.03;;;2.70;;
6763;SDS011;47432;48.760;9.178;2023-09-18T05:20:35;8.30;;;2.70;;
6763;SDS011;47432;48.760;9.178;2023-09-18T05:23:01;8.20;;;2.70;;
6763;SDS011;47432;48.760;9.178;2023-09-18T05:25:27;10.20;;;3.90;;
6763;SDS011;47432;48.760;9.178;2023-09-18T05:27:57;7.93;;;2.33;;
6763;SDS011;47432;48.760;9.178;2023-09-18T05:30:25;10.30;;;2.83;;
6763;SDS011;47432;48.760;9.178;2023-09-18T05:32:58;8.90;;;2.70;;
6763;SDS011;47432;48.760;9.178;2023-09-18T05:35:30;10.17;;;2.87;;
6763;SDS011;47432;48.760;9.178;2023-09-18T05:38:01;10.63;;;2.70;;
6763;SDS011;47432;48.760;9.178;2023-09-18T05:40:28;13.23;;;2.67;;
6763;SDS011;47432;48.760;9.178;2023-09-18T05:42:54;8.90;;;2.50;;
6763;SDS011;47432;48.760;9.178;2023-09-18T05:45:21;10.40;;;2.57;;
6763;SDS011;47432;48.760;9.178;2023-09-18T05:47:48;9.63;;;2.60;;
6763;SDS011;47432;48.760;9.178;2023-09-18T05:50:14;10.53;;;2.80;;
6763;SDS011;47432;48.760;9.178;2023-09-18T05:52:45;12.80;;;3.47;;
6763;SDS011;47432;48.760;9.178;2023-09-18T05:55:13;8.33;;;2.60;;
6763;SDS011;47432;48.760;9.178;2023-09-18T05:57:40;10.03;;;2.63;;
6763;SDS011;47432;48.760;9.178;2023-09-18T06:00:06;10.37;;;3.43;;
6763;SDS011;47432;48.760;9.178;2023-09-18T06:02:32;10.43;;;3.10;;
6763;SDS011;47432;48.760;9.178;2023-09-18T06:04:58;10.60;;;3.20;;
6763;SDS011;47432;48.760;9.178;2023-09-18T06:07:26;10.90;;;2.27;;
6763;SDS011;47432;48.760;9.178;2023-09-18T06:09:52;10.60;;;3.10;;
6763;SDS011;47432;48.760;9.178;2023-09-18T06:12:18;9.93;;;2.90;;
6763;SDS011;47432;48.760;9.178;2023-09-18T06:14:44;11.40;;;3.30;;
6763;SDS011;47432;48.760;9.178;2023-09-18T06:17:11;12.90;;;3.53;;
6763;SDS011;47432;48.760;9.178;2023-09-18T06:19:37;8.40;;;2.83;;
6763;SDS011;47432;48.760;9.178;2023-09-18T06:22:06;10.97;;;3.20;;
6763;SDS011;47432;48.760;9.178;2023-09-18T06:24:32;10.27;;;2.50;;
6763;SDS011;47432;48.760;9.178;2023-09-18T06:27:02;8.83;;;2.97;;
6763;SDS011;47432;48.760;9.178;2023-09-18T06:29:31;9.80;;;2.27;;
6763;SDS011;47432;48.760;9.178;2023-09-18T06:31:58;8.60;;;2.27;;
6763;SDS011;47432;48.760;9.178;2023-09-18T06:34:24;9.00;;;2.70;;
6763;SDS011;47432;48.760;9.178;2023-09-18T06:36:50;11.00;;;3.50;;
6763;SDS011;47432;48.760;9.178;2023-09-18T06:39:16;9.70;;;3.27;;
6763;SDS011;47432;48.760;9.178;2023-09-18T06:41:45;10.53;;;3.03;;
6763;SDS011;47432;48.760;9.178;2023-09-18T06:44:11;9.73;;;3.03;;
6763;SDS011;47432;48.760;9.178;2023-09-18T06:46:36;11.80;;;2.93;;
6763;SDS011;47432;48.760;9.178;2023-09-18T06:49:02;8.53;;;2.47;;
6763;SDS011;47432;48.760;9.178;2023-09-18T06:51:31;14.43;;;3.00;;
6763;SDS011;47432;48.760;9.178;2023-09-18T06:53:56;8.87;;;2.73;;
6763;SDS011;47432;48.760;9.178;2023-09-18T06:56:23;12.00;;;2.50;;
6763;SDS011;47432;48.760;9.178;2023-09-18T06:58:49;9.50;;;3.03;;
6763;SDS011;47432;48.760;9.178;2023-09-18T07:01:17;12.13;;;2.63;;
6763;SDS011;47432;48.760;9.178;2023-09-18T07:03:46;9.27;;;2.37;;
6763;SDS011;47432;48.760;9.178;2023-09-18T07:06:13;10.67;;;2.63;;
6763;SDS011;47432;48.760;9.178;2023-09-18T07:08:41;9.53;;;2.10;;
6763;SDS011;47432;48.760;9.178;2023-09-18T07:11:12;7.67;;;1.97;;
6763;SDS011;47432;48.760;9.178;2023-09-18T07:13:38;8.77;;;2.53;;
6763;SDS011;47432;48.760;9.178;2023-09-18T07:16:04;9.17;;;1.90;;
6763;SDS011;47432;48.760;9.178;2023-09-18T07:18:31;9.20;;;2.07;;
6763;SDS011;47432;48.760;9.178;2023-09-18T07:20:56;9.20;;;2.50;;
6763;SDS011;47432;48.760;9.178;2023-09-18T07:23:22;8.57;;;2.23;;
6763;SDS011;47432;48.760;9.178;2023-09-18T07:25:48;9.10;;;2.23;;
6763;SDS011;47432;48.760;9.178;2023-09-18T07:28:14;12.23;;;2.40;;
6763;SDS011;47432;48.760;9.178;2023-09-18T07:30:43;7.70;;;1.40;;
6763;SDS011;47432;48.760;9.178;2023-09-18T07:33:09;7.77;;;1.83;;
6763;SDS011;47432;48.760;9.178;2023-09-18T07:35:37;7.50;;;1.60;;
6763;SDS011;47432;48.760;9.178;2023-09-18T07:38:03;9.47;;;2.03;;
6763;SDS011;47432;48.760;9.178;2023-09-18T07:40:31;9.90;;;2.30;;
6763;SDS011;47432;48.760;9.178;2023-09-18T07:42:57;6.83;;;1.77;;
6763;SDS011;47432;48.760;9.178;2023-09-18T07:45:25;7.43;;;1.53;;
6763;SDS011;47432;48.760;9.178;2023-09-18T07:47:53;9.40;;;1.60;;
6763;SDS011;47432;48.760;9.178;2023-09-18T07:50:19;8.93;;;1.67;;
6763;SDS011;47432;48.760;9.178;2023-09-18T07:52:44;10.50;;;1.67;;
6763;SDS011;47432;48.760;9.178;2023-09-18T07:55:10;8.50;;;2.10;;
6763;SDS011;47432;48.760;9.178;2023-09-18T07:57:36;6.20;;;1.20;;
6763;SDS011;47432;48.760;9.178;2023-09-18T08:00:02;7.20;;;1.37;;
6763;SDS011;47432;48.760;9.178;2023-09-18T08:02:33;7.43;;;1.33;;
6763;SDS011;47432;48.760;9.178;2023-09-18T08:05:02;6.57;;;1.57;;
6763;SDS011;47432;48.760;9.178;2023-09-18T08:07:30;6.83;;;1.20;;
6763;SDS011;47432;48.760;9.178;2023-09-18T08:09:56;6.50;;;1.63;;
6763;SDS011;47432;48.760;9.178;2023-09-18T08:12:22;9.07;;;1.60;;
6763;SDS011;47432;48.760;9.178;2023-09-18T08:14:49;6.50;;;1.03;;
6763;SDS011;47432;48.760;9.178;2023-09-18T08:17:15;5.30;;;1.00;;
6763;SDS011;47432;48.760;9.178;2023-09-18T08:19:41;6.30;;;0.97;;
6763;SDS011;47432;48.760;9.178;2023-09-18T08:22:09;6.30;;;1.40;;
6763;SDS011;47432;48.760;9.178;2023-09-18T08:24:36;7.57;;;1.00;;
6763;SDS011;47432;48.760;9.178;2023-09-18T08:27:02;6.03;;;1.00;;
6763;SDS011;47432;48.760;9.178;2023-09-18T08:29:28;7.37;;;1.33;;
6763;SDS011;47432;48.760;9.178;2023-09-18T08:31:54;8.23;;;1.30;;
6763;SDS011;47432;48.760;9.178;2023-09-18T08:34:20;8.90;;;1.33;;
6763;SDS011;47432;48.760;9.178;2023-09-18T08:36:45;15.50;;;1.93;;
6763;SDS011;47432;48.760;9.178;2023-09-18T08:39:11;7.73;;;1.27;;
6763;SDS011;47432;48.760;9.178;2023-09-18T08:41:41;8.03;;;1.20;;
6763;SDS011;47432;48.760;9.178;2023-09-18T08:44:08;5.77;;;1.17;;
6763;SDS011;47432;48.760;9.178;2023-09-18T08:46:35;8.30;;;1.37;;
6763;SDS011;47432;48.760;9.178;2023-09-18T08:49:02;8.87;;;1.63;;
6763;SDS011;47432;48.760;9.178;2023-09-18T08:51:30;6.53;;;0.97;;
6763;SDS011;47432;48.760;9.178;2023-09-18T08:53:57;7.47;;;1.37;;
6763;SDS011;47432;48.760;9.178;2023-09-18T08:56:25;6.70;;;1.27;;
6763;SDS011;47432;48.760;9.178;2023-09-18T08:58:53;5.80;;;1.10;;
6763;SDS011;47432;48.760;9.178;2023-09-18T09:01:19;5.77;;;1.10;;
6763;SDS011;47432;48.760;9.178;2023-09-18T09:03:46;6.37;;;1.10;;
6763;SDS011;47432;48.760;9.178;2023-09-18T09:06:12;6.00;;;1.10;;
6763;SDS011;47432;48.760;9.178;2023-09-18T09:08:38;8.37;;;1.30;;
6763;SDS011;47432;48.760;9.178;2023-09-18T09:11:06;6.63;;;1.30;;
6763;SDS011;47432;48.760;9.178;2023-09-18T09:13:32;6.43;;;0.87;;
6763;SDS011;47432;48.760;9.178;2023-09-18T09:15:58;8.43;;;1.30;;
6763;SDS011;47432;48.760;9.178;2023-09-18T09:18:26;6.10;;;1.10;;
6763;SDS011;47432;48.760;9.178;2023-09-18T09:20:57;6.80;;;1.37;;
6763;SDS011;47432;48.760;9.178;2023-09-18T09:23:30;6.70;;;1.10;;
6763;SDS011;47432;48.760;9.178;2023-09-18T09:26:17;6.90;;;1.50;;
6763;SDS011;47432;48.760;9.178;2023-09-18T09:28:45;5.70;;;1.07;;
6763;SDS011;47432;48.760;9.178;2023-09-18T09:31:22;8.30;;;1.33;;
6763;SDS011;47432;48.760;9.178;2023-09-18T09:33:57;6.23;;;1.13;;
6763;SDS011;47432;48.760;9.178;2023-09-18T09:36:23;7.90;;;1.77;;
6763;SDS011;47432;48.760;9.178;2023-09-18T09:38:54;7.33;;;1.60;;
6763;SDS011;47432;48.760;9.178;2023-09-18T09:41:25;7.13;;;1.03;;
6763;SDS011;47432;48.760;9.178;2023-09-18T09:43:52;7.40;;;1.40;;
6763;SDS011;47432;48.760;9.178;2023-09-18T09:46:20;7.03;;;1.10;;
6763;SDS011;47432;48.760;9.178;2023-09-18T09:49:05;10.27;;;1.50;;
6763;SDS011;47432;48.760;9.178;2023-09-18T09:51:32;8.90;;;1.20;;
6763;SDS011;47432;48.760;9.178;2023-09-18T09:53:59;9.37;;;1.27;;
6763;SDS011;47432;48.760;9.178;2023-09-18T09:56:47;11.80;;;1.80;;
6763;SDS011;47432;48.760;9.178;2023-09-18T09:59:18;7.80;;;1.63;;
6763;SDS011;47432;48.760;9.178;2023-09-18T10:01:48;7.93;;;1.70;;
6763;SDS011;47432;48.760;9.178;2023-09-18T10:04:15;6.50;;;1.10;;
6763;SDS011;47432;48.760;9.178;2023-09-18T10:06:44;8.93;;;1.10;;
6763;SDS011;47432;48.760;9.178;2023-09-18T10:09:19;7.60;;;1.67;;
6763;SDS011;47432;48.760;9.178;2023-09-18T10:11:50;9.47;;;1.43;;
6763;SDS011;47432;48.760;9.178;2023-09-18T10:14:19;7.47;;;1.30;;
6763;SDS011;47432;48.760;9.178;2023-09-18T10:16:51;7.80;;;1.20;;
6763;SDS011;47432;48.760;9.178;2023-09-18T10:22:37;7.77;;;1.13;;
6763;SDS011;47432;48.760;9.178;2023-09-18T10:25:14;8.40;;;1.40;;
6763;SDS011;47432;48.760;9.178;2023-09-18T10:27:44;7.03;;;1.23;;
6763;SDS011;47432;48.760;9.178;2023-09-18T10:30:20;6.97;;;1.67;;
6763;SDS011;47432;48.760;9.178;2023-09-18T10:32:50;8.00;;;1.80;;
6763;SDS011;47432;48.760;9.178;2023-09-18T10:35:19;8.30;;;1.60;;
6763;SDS011;47432;48.760;9.178;2023-09-18T10:37:46;7.90;;;1.50;;
6763;SDS011;47432;48.760;9.178;2023-09-18T10:40:18;6.27;;;1.50;;
6763;SDS011;47432;48.760;9.178;2023-09-18T10:42:46;6.80;;;1.57;;
6763;SDS011;47432;48.760;9.178;2023-09-18T10:45:13;8.50;;;1.57;;
6763;SDS011;47432;48.760;9.178;2023-09-18T10:47:41;8.83;;;1.40;;
6763;SDS011;47432;48.760;9.178;2023-09-18T10:50:11;6.97;;;1.37;;
6763;SDS011;47432;48.760;9.178;2023-09-18T10:52:51;7.47;;;1.83;;
6763;SDS011;47432;48.760;9.178;2023-09-18T10:55:17;7.90;;;1.27;;
6763;SDS011;47432;48.760;9.178;2023-09-18T10:57:49;8.53;;;1.60;;
6763;SDS011;47432;48.760;9.178;2023-09-18T11:00:26;7.63;;;1.93;;
6763;SDS011;47432;48.760;9.178;2023-09-18T11:03:11;7.80;;;1.97;;
6763;SDS011;47432;48.760;9.178;2023-09-18T11:05:43;6.73;;;1.20;;
6763;SDS011;47432;48.760;9.178;2023-09-18T11:11:02;7.97;;;1.40;;
6763;SDS011;47432;48.760;9.178;2023-09-18T11:13:35;8.63;;;1.30;;
6763;SDS011;47432;48.760;9.178;2023-09-18T11:19:07;6.50;;;0.93;;
6763;SDS011;47432;48.760;9.178;2023-09-18T11:21:36;6.27;;;1.23;;
6763;SDS011;47432;48.760;9.178;2023-09-18T11:24:04;8.10;;;1.20;;
6763;SDS011;47432;48.760;9.178;2023-09-18T11:26:36;8.20;;;1.47;;
6763;SDS011;47432;48.760;9.178;2023-09-18T11:29:13;8.37;;;1.30;;
6763;SDS011;47432;48.760;9.178;2023-09-18T11:31:54;6.00;;;1.20;;
6763;SDS011;47432;48.760;9.178;2023-09-18T11:34:25;7.97;;;1.60;;
6763;SDS011;47432;48.760;9.178;2023-09-18T11:36:56;5.90;;;1.40;;
6763;SDS011;47432;48.760;9.178;2023-09-18T11:39:36;7.30;;;1.10;;
6763;SDS011;47432;48.760;9.178;2023-09-18T11:42:13;6.50;;;1.20;;
6763;SDS011;47432;48.760;9.178;2023-09-18T11:44:44;6.10;;;1.07;;
6763;SDS011;47432;48.760;9.178;2023-09-18T11:47:16;6.10;;;1.30;;
6763;SDS011;47432;48.760;9.178;2023-09-18T11:52:27;8.13;;;1.53;;
6763;SDS011;47432;48.760;9.178;2023-09-18T11:54:57;6.90;;;1.23;;
6763;SDS011;47432;48.760;9.178;2023-09-18T11:57:25;6.20;;;1.43;;
6763;SDS011;47432;48.760;9.178;2023-09-18T11:59:52;7.37;;;1.30;;
6763;SDS011;47432;48.760;9.178;2023-09-18T12:02:28;6.30;;;1.40;;
6763;SDS011;47432;48.760;9.178;2023-09-18T12:05:16;6.83;;;1.20;;
6763;SDS011;47432;48.760;9.178;2023-09-18T12:07:44;6.20;;;1.20;;
6763;SDS011;47432;48.760;9.178;2023-09-18T12:10:14;6.33;;;1.07;;
6763;SDS011;47432;48.760;9.178;2023-09-18T12:12:44;5.40;;;0.90;;
6763;SDS011;47432;48.760;9.178;2023-09-18T12:15:17;6.20;;;1.40;;
6763;SDS011;47432;48.760;9.178;2023-09-18T12:17:44;6.57;;;1.30;;
6763;SDS011;47432;48.760;9.178;2023-09-18T12:20:14;6.63;;;1.10;;
6763;SDS011;47432;48.760;9.178;2023-09-18T12:22:46;6.23;;;1.43;;
6763;SDS011;47432;48.760;9.178;2023-09-18T12:25:15;6.20;;;1.50;;
6763;SDS011;47432;48.760;9.178;2023-09-18T12:27:44;6.40;;;1.47;;
6763;SDS011;47432;48.760;9.178;2023-09-18T12:30:10;9.20;;;1.77;;
6763;SDS011;47432;48.760;9.178;2023-09-18T12:32:40;6.57;;;1.30;;
6763;SDS011;47432;48.760;9.178;2023-09-18T12:35:06;5.60;;;1.20;;
6763;SDS011;47432;48.760;9.178;2023-09-18T12:37:34;6.20;;;1.30;;
6763;SDS011;47432;48.760;9.178;2023-09-18T12:40:04;6.40;;;1.20;;
6763;SDS011;47432;48.760;9.178;2023-09-18T12:42:36;6.87;;;1.27;;
6763;SDS011;47432;48.760;9.178;2023-09-18T12:45:05;7.30;;;1.23;;
6763;SDS011;47432;48.760;9.178;2023-09-18T12:47:35;6.37;;;0.97;;
6763;SDS011;47432;48.760;9.178;2023-09-18T12:50:04;5.60;;;0.90;;
6763;SDS011;47432;48.760;9.178;2023-09-18T12:52:36;7.47;;;1.90;;
6763;SDS011;47432;48.760;9.178;2023-09-18T12:55:02;5.90;;;1.47;;
6763;SDS011;47432;48.760;9.178;2023-09-18T12:57:31;7.77;;;1.40;;
6763;SDS011;47432;48.760;9.178;2023-09-18T12:59:57;10.50;;;1.80;;
6763;SDS011;47432;48.760;9.178;2023-09-18T13:02:28;8.70;;;1.67;;
6763;SDS011;47432;48.760;9.178;2023-09-18T13:04:56;6.90;;;1.43;;
6763;SDS011;47432;48.760;9.178;2023-09-18T13:07:24;6.97;;;1.37;;
6763;SDS011;47432;48.760;9.178;2023-09-18T13:10:25;5.83;;;1.27;;
6763;SDS011;47432;48.760;9.178;2023-09-18T13:12:51;6.57;;;1.80;;
6763;SDS011;47432;48.760;9.178;2023-09-18T13:15:27;7.23;;;1.47;;
6763;SDS011;47432;48.760;9.178;2023-09-18T13:17:55;7.00;;;1.33;;
6763;SDS011;47432;48.760;9.178;2023-09-18T13:20:28;5.50;;;1.20;;
6763;SDS011;47432;48.760;9.178;2023-09-18T13:22:55;6.33;;;1.00;;
6763;SDS011;47432;48.760;9.178;2023-09-18T13:25:32;7.20;;;1.13;;
6763;SDS011;47432;48.760;9.178;2023-09-18T13:28:04;5.60;;;1.20;;
6763;SDS011;47432;48.760;9.178;2023-09-18T13:30:33;6.00;;;1.37;;
6763;SDS011;47432;48.760;9.178;2023-09-18T13:33:06;5.30;;;0.80;;
6763;SDS011;47432;48.760;9.178;2023-09-18T13:35:40;6.33;;;1.20;;
6763;SDS011;47432;48.760;9.178;2023-09-18T13:38:09;6.30;;;1.03;;
6763;SDS011;47432;48.760;9.178;2023-09-18T13:40:36;5.67;;;1.00;;
6763;SDS011;47432;48.760;9.178;2023-09-18T13:43:12;7.67;;;1.30;;
6763;SDS011;47432;48.760;9.178;2023-09-18T13:45:47;6.63;;;1.53;;
6763;SDS011;47432;48.760;9.178;2023-09-18T13:48:16;5.90;;;1.30;;
6763;SDS011;47432;48.760;9.178;2023-09-18T13:50:43;7.60;;;1.20;;
6763;SDS011;47432;48.760;9.178;2023-09-18T13:53:09;6.57;;;1.70;;
6763;SDS011;47432;48.760;9.178;2023-09-18T13:55:35;7.23;;;1.40;;
6763;SDS011;47432;48.760;9.178;2023-09-18T13:58:01;5.93;;;1.10;;
6763;SDS011;47432;48.760;9.178;2023-09-18T14:00:30;6.53;;;1.67;;
6763;SDS011;47432;48.760;9.178;2023-09-18T14:02:57;7.00;;;1.33;;
6763;SDS011;47432;48.760;9.178;2023-09-18T14:05:23;5.93;;;1.17;;
6763;SDS011;47432;48.760;9.178;2023-09-18T14:07:50;6.63;;;1.20;;
6763;SDS011;47432;48.760;9.178;2023-09-18T14:10:16;7.57;;;1.40;;
6763;SDS011;47432;48.760;9.178;2023-09-18T14:12:43;6.03;;;1.20;;
6763;SDS011;47432;48.760;9.178;2023-09-18T14:15:09;7.23;;;1.20;;
6763;SDS011;47432;48.760;9.178;2023-09-18T14:17:35;6.17;;;1.33;;
6763;SDS011;47432;48.760;9.178;2023-09-18T14:20:04;5.30;;;0.90;;
6763;SDS011;47432;48.760;9.178;2023-09-18T14:22:31;6.93;;;1.17;;
6763;SDS011;47432;48.760;9.178;2023-09-18T14:24:58;6.37;;;1.30;;
6763;SDS011;47432;48.760;9.178;2023-09-18T14:27:24;6.50;;;1.13;;
6763;SDS011;47432;48.760;9.178;2023-09-18T14:29:52;8.37;;;1.60;;
6763;SDS011;47432;48.760;9.178;2023-09-18T14:32:18;6.13;;;1.20;;
6763;SDS011;47432;48.760;9.178;2023-09-18T14:34:44;5.83;;;0.93;;
6763;SDS011;47432;48.760;9.178;2023-09-18T14:37:10;7.80;;;1.50;;
6763;SDS011;47432;48.760;9.178;2023-09-18T14:39:36;6.10;;;1.17;;
6763;SDS011;47432;48.760;9.178;2023-09-18T14:42:02;6.10;;;1.60;;
6763;SDS011;47432;48.760;9.178;2023-09-18T14:44:28;8.30;;;1.63;;
6763;SDS011;47432;48.760;9.178;2023-09-18T14:46:55;5.70;;;1.27;;
6763;SDS011;47432;48.760;9.178;2023-09-18T14:49:21;6.40;;;1.33;;
6763;SDS011;47432;48.760;9.178;2023-09-18T14:51:47;8.57;;;1.00;;
6763;SDS011;47432;48.760;9.178;2023-09-18T14:54:15;6.47;;;1.03;;
6763;SDS011;47432;48.760;9.178;2023-09-18T14:56:41;6.57;;;1.13;;
6763;SDS011;47432;48.760;9.178;2023-09-18T14:59:07;5.60;;;0.93;;
6763;SDS011;47432;48.760;9.178;2023-09-18T15:01:33;6.90;;;1.10;;
6763;SDS011;47432;48.760;9.178;2023-09-18T15:03:59;8.70;;;1.47;;
6763;SDS011;47432;48.760;9.178;2023-09-18T15:06:25;6.87;;;1.17;;
6763;SDS011;47432;48.760;9.178;2023-09-18T15:08:52;6.23;;;1.17;;
6763;SDS011;47432;48.760;9.178;2023-09-18T15:11:20;6.07;;;0.90;;
6763;SDS011;47432;48.760;9.178;2023-09-18T15:13:46;7.00;;;1.10;;
6763;SDS011;47432;48.760;9.178;2023-09-18T15:16:12;7.47;;;1.33;;
6763;SDS011;47432;48.760;9.178;2023-09-18T15:18:38;6.50;;;1.40;;